5-Min.Temp.ØTemp.MaxTemp.MinLuftfeuchteLuftdruckRegenWindØWindböeMax.
00:00-1.3°C-1.3°C-1.3°C80%1020.3hPa0.0mm9.9km/h18.7km/h
00:05-1.3°C-1.3°C-1.3°C80%1020.3hPa0.0mm10.9km/h18.7km/h
00:10-1.3°C-1.3°C-1.3°C80%1020.2hPa0.0mm8.9km/h13.7km/h
00:15-1.3°C-1.3°C-1.3°C80%1020.2hPa0.0mm11.0km/h18.7km/h
00:20-1.3°C-1.3°C-1.3°C80%1020.2hPa0.0mm13.0km/h22.3km/h
00:25-1.3°C-1.3°C-1.3°C79%1020.1hPa0.0mm10.4km/h16.9km/h
00:30-1.3°C-1.3°C-1.3°C79%1020.1hPa0.0mm8.1km/h15.5km/h
00:35-1.3°C-1.3°C-1.3°C79%1020.0hPa0.0mm12.1km/h18.7km/h
00:40-1.3°C-1.3°C-1.3°C79%1020.1hPa0.0mm12.2km/h20.5km/h
00:45-1.3°C-1.3°C-1.3°C79%1020.0hPa0.0mm13.3km/h23.8km/h
00:50-1.3°C-1.2°C-1.3°C79%1020.0hPa0.0mm9.8km/h16.9km/h
00:55-1.3°C-1.2°C-1.3°C79%1020.1hPa0.0mm8.7km/h16.9km/h
01:00-1.3°C-1.2°C-1.3°C79%1020.1hPa0.0mm9.2km/h18.7km/h
01:05-1.3°C-1.2°C-1.3°C79%1020.1hPa0.0mm10.5km/h16.9km/h
01:10-1.3°C-1.2°C-1.3°C78%1020.1hPa0.0mm9.0km/h15.5km/h
01:15-1.3°C-1.2°C-1.3°C79%1020.1hPa0.0mm8.2km/h15.5km/h
01:20-1.3°C-1.3°C-1.3°C78%1020.1hPa0.0mm9.3km/h13.7km/h
01:25-1.3°C-1.3°C-1.3°C79%1020.1hPa0.0mm8.4km/h13.7km/h
01:30-1.3°C-1.3°C-1.4°C79%1020.1hPa0.0mm8.9km/h13.7km/h
01:35-1.4°C-1.3°C-1.4°C80%1020.1hPa0.0mm7.0km/h13.7km/h
01:40-1.4°C-1.4°C-1.4°C80%1020.1hPa0.0mm6.8km/h11.9km/h
01:45-1.4°C-1.4°C-1.4°C80%1020.1hPa0.0mm7.7km/h13.7km/h
01:50-1.4°C-1.4°C-1.4°C80%1020.1hPa0.0mm7.7km/h16.9km/h
01:55-1.4°C-1.4°C-1.4°C79%1020.1hPa0.0mm10.2km/h16.9km/h
02:00-1.4°C-1.4°C-1.4°C79%1020.2hPa0.0mm8.6km/h13.7km/h
02:05-1.4°C-1.4°C-1.4°C79%1020.2hPa0.0mm8.1km/h13.7km/h
02:10-1.4°C-1.4°C-1.4°C79%1020.2hPa0.0mm8.4km/h13.7km/h
02:15-1.4°C-1.4°C-1.4°C79%1020.1hPa0.0mm9.4km/h15.5km/h
02:20-1.4°C-1.4°C-1.4°C79%1020.0hPa0.0mm7.2km/h11.9km/h
02:30-1.4°C-1.4°C-1.4°C79%1020.0hPa0.0mm7.4km/h11.9km/h
02:35-1.4°C-1.4°C-1.4°C79%1019.9hPa0.0mm8.2km/h15.5km/h
02:40-1.4°C-1.4°C-1.4°C79%1019.9hPa0.0mm9.6km/h13.7km/h
02:45-1.4°C-1.4°C-1.5°C79%1019.8hPa0.0mm7.1km/h13.7km/h
02:50-1.5°C-1.4°C-1.5°C79%1019.8hPa0.0mm7.4km/h13.7km/h
02:55-1.5°C-1.5°C-1.6°C80%1019.7hPa0.0mm8.2km/h15.5km/h
03:00-1.5°C-1.5°C-1.6°C80%1019.6hPa0.0mm7.3km/h11.9km/h
03:05-1.6°C-1.5°C-1.6°C80%1019.6hPa0.0mm7.4km/h13.7km/h
03:10-1.6°C-1.6°C-1.6°C80%1019.6hPa0.0mm8.0km/h15.5km/h
03:15-1.6°C-1.6°C-1.6°C80%1019.5hPa0.0mm8.2km/h13.7km/h
03:20-1.6°C-1.6°C-1.6°C80%1019.3hPa0.0mm9.2km/h16.9km/h
03:25-1.6°C-1.6°C-1.6°C80%1019.3hPa0.0mm9.0km/h15.5km/h
03:30-1.6°C-1.6°C-1.6°C80%1019.3hPa0.0mm6.8km/h11.9km/h
03:35-1.6°C-1.6°C-1.6°C80%1019.2hPa0.0mm6.8km/h13.7km/h
03:40-1.6°C-1.6°C-1.7°C80%1019.1hPa0.0mm6.5km/h13.7km/h
03:45-1.7°C-1.6°C-1.7°C80%1019.1hPa0.0mm7.4km/h11.9km/h
03:50-1.7°C-1.7°C-1.7°C80%1019.1hPa0.0mm8.1km/h13.7km/h
03:55-1.7°C-1.7°C-1.7°C80%1019.0hPa0.0mm6.6km/h11.9km/h
04:00-1.7°C-1.7°C-1.7°C80%1019.0hPa0.0mm6.0km/h10.1km/h
04:05-1.7°C-1.7°C-1.7°C80%1018.9hPa0.0mm6.9km/h10.1km/h
04:10-1.7°C-1.7°C-1.7°C80%1019.1hPa0.0mm5.6km/h8.6km/h
04:15-1.7°C-1.7°C-1.7°C80%1019.0hPa0.0mm6.1km/h8.6km/h
04:20-1.7°C-1.7°C-1.8°C81%1019.1hPa0.0mm5.4km/h8.6km/h
04:25-1.7°C-1.7°C-1.7°C80%1019.1hPa0.0mm4.7km/h6.8km/h
04:30-1.7°C-1.7°C-1.8°C80%1019.0hPa0.0mm4.3km/h8.6km/h
04:35-1.7°C-1.7°C-1.8°C81%1019.1hPa0.0mm5.1km/h10.1km/h
04:40-1.8°C-1.7°C-1.8°C81%1019.1hPa0.0mm6.4km/h10.1km/h
04:45-1.8°C-1.7°C-1.8°C81%1019.0hPa0.0mm6.0km/h10.1km/h
04:50-1.8°C-1.7°C-1.8°C81%1019.0hPa0.0mm5.3km/h11.9km/h
04:55-1.8°C-1.7°C-1.8°C81%1019.0hPa0.0mm4.9km/h8.6km/h
05:00-1.8°C-1.7°C-1.8°C80%1019.0hPa0.0mm5.5km/h8.6km/h
05:05-1.8°C-1.7°C-1.8°C80%1019.0hPa0.0mm5.5km/h8.6km/h
05:10-1.7°C-1.7°C-1.8°C81%1019.0hPa0.0mm5.3km/h10.1km/h
05:15-1.8°C-1.7°C-1.8°C81%1019.0hPa0.0mm5.4km/h8.6km/h
05:20-1.8°C-1.7°C-1.8°C81%1018.9hPa0.0mm4.5km/h8.6km/h
05:25-1.8°C-1.8°C-1.8°C81%1018.9hPa0.0mm4.8km/h8.6km/h
05:30-1.8°C-1.8°C-1.8°C81%1018.9hPa0.0mm5.3km/h10.1km/h
05:35-1.8°C-1.8°C-1.8°C80%1019.0hPa0.0mm5.3km/h8.6km/h
05:40-1.8°C-1.8°C-1.8°C80%1018.9hPa0.0mm5.0km/h10.1km/h
05:45-1.8°C-1.7°C-1.8°C80%1019.0hPa0.0mm5.7km/h8.6km/h
05:50-1.8°C-1.8°C-1.8°C80%1019.0hPa0.0mm4.3km/h6.8km/h
05:55-1.8°C-1.8°C-1.8°C81%1019.0hPa0.0mm4.8km/h8.6km/h
06:00-1.8°C-1.8°C-1.8°C81%1019.0hPa0.0mm4.2km/h8.6km/h
06:05-1.8°C-1.8°C-1.8°C81%1019.1hPa0.0mm3.7km/h6.8km/h
06:10-1.8°C-1.8°C-1.8°C81%1019.1hPa0.0mm3.8km/h8.6km/h
06:15-1.8°C-1.8°C-1.8°C81%1019.1hPa0.0mm4.5km/h8.6km/h
06:20-1.8°C-1.8°C-1.8°C81%1019.1hPa0.0mm5.2km/h10.1km/h
06:25-1.8°C-1.8°C-1.9°C81%1019.0hPa0.0mm5.3km/h8.6km/h
06:30-1.9°C-1.8°C-1.9°C81%1018.9hPa0.0mm5.1km/h8.6km/h
06:35-1.9°C-1.9°C-1.9°C81%1018.9hPa0.0mm4.7km/h8.6km/h
06:40-1.9°C-1.9°C-1.9°C81%1018.9hPa0.0mm3.4km/h6.8km/h
06:45-1.9°C-1.9°C-1.9°C81%1018.9hPa0.0mm4.1km/h6.8km/h
06:50-1.9°C-1.9°C-1.9°C81%1018.9hPa0.0mm3.6km/h6.8km/h
06:55-1.9°C-1.9°C-1.9°C81%1018.8hPa0.0mm4.3km/h6.8km/h
07:00-1.9°C-1.9°C-2.0°C81%1018.8hPa0.0mm2.6km/h5.0km/h
07:05-1.9°C-1.9°C-1.9°C81%1018.9hPa0.0mm3.0km/h5.0km/h
07:10-1.9°C-1.9°C-1.9°C81%1018.9hPa0.0mm2.6km/h3.2km/h
07:15-1.9°C-1.9°C-1.9°C81%1018.9hPa0.0mm2.0km/h5.0km/h
07:20-1.9°C-1.9°C-1.9°C81%1018.9hPa0.0mm2.0km/h6.8km/h
07:25-1.9°C-1.9°C-2.0°C81%1018.9hPa0.0mm0.0km/h0.0km/h
07:30-2.0°C-1.9°C-2.0°C81%1018.9hPa0.0mm1.3km/h3.2km/h
07:35-2.0°C-1.9°C-2.1°C81%1018.9hPa0.0mm2.1km/h6.8km/h
07:40-2.0°C-2.0°C-2.1°C81%1018.9hPa0.0mm0.0km/h0.0km/h
07:45-2.1°C-2.0°C-2.1°C81%1018.9hPa0.0mm0.5km/h5.0km/h
07:50-2.1°C-2.1°C-2.1°C81%1018.8hPa0.0mm2.4km/h5.0km/h
07:55-2.1°C-2.1°C-2.1°C81%1018.9hPa0.0mm1.3km/h5.0km/h
08:00-2.1°C-2.1°C-2.1°C81%1018.9hPa0.0mm2.6km/h5.0km/h
08:05-2.1°C-2.0°C-2.1°C81%1018.9hPa0.0mm1.2km/h5.0km/h
08:10-2.1°C-2.0°C-2.1°C81%1018.9hPa0.0mm0.0km/h0.0km/h
08:15-2.1°C-2.0°C-2.1°C82%1018.9hPa0.0mm0.0km/h0.0km/h
08:20-2.1°C-2.0°C-2.1°C82%1018.9hPa0.0mm0.0km/h0.0km/h
08:25-2.1°C-2.0°C-2.1°C82%1018.9hPa0.0mm0.0km/h0.0km/h
08:30-2.1°C-2.0°C-2.1°C82%1018.9hPa0.0mm0.0km/h0.0km/h
08:35-2.1°C-2.0°C-2.1°C82%1018.9hPa0.0mm0.0km/h0.0km/h
08:40-2.0°C-2.0°C-2.1°C82%1019.0hPa0.0mm0.0km/h0.0km/h
08:45-2.0°C-1.9°C-2.1°C82%1019.1hPa0.0mm1.0km/h5.0km/h
08:50-2.0°C-1.9°C-2.0°C82%1019.1hPa0.0mm0.1km/h0.0km/h
08:55-1.9°C-1.9°C-2.0°C81%1019.0hPa0.0mm0.0km/h0.0km/h
09:00-1.9°C-1.9°C-1.9°C81%1018.9hPa0.0mm0.0km/h0.0km/h
09:05-1.9°C-1.8°C-1.9°C81%1018.9hPa0.0mm0.0km/h0.0km/h
09:10-1.8°C-1.8°C-1.9°C81%1018.9hPa0.0mm0.5km/h3.2km/h
09:15-1.8°C-1.7°C-1.8°C81%1019.0hPa0.0mm0.1km/h0.0km/h
09:20-1.7°C-1.7°C-1.8°C82%1019.0hPa0.0mm0.0km/h0.0km/h
09:25-1.7°C-1.7°C-1.7°C82%1019.0hPa0.0mm0.0km/h0.0km/h
09:30-1.7°C-1.6°C-1.7°C81%1019.0hPa0.0mm1.1km/h5.0km/h
09:35-1.6°C-1.6°C-1.7°C81%1019.1hPa0.0mm1.6km/h3.2km/h
09:40-1.6°C-1.5°C-1.6°C81%1019.1hPa0.0mm1.0km/h3.2km/h
09:45-1.4°C-1.4°C-1.5°C81%1019.2hPa0.0mm0.0km/h0.0km/h
09:50-1.4°C-1.4°C-1.4°C81%1019.3hPa0.0mm0.0km/h0.0km/h
09:55-1.3°C-1.3°C-1.4°C81%1019.3hPa0.0mm0.0km/h0.0km/h
10:00-1.2°C-1.2°C-1.3°C81%1019.3hPa0.0mm0.8km/h3.2km/h
10:05-1.2°C-1.2°C-1.2°C81%1019.4hPa0.0mm2.4km/h6.8km/h
10:10-1.1°C-1.1°C-1.2°C81%1019.5hPa0.0mm2.7km/h6.8km/h
10:15-1.1°C-1.1°C-1.1°C80%1019.5hPa0.0mm1.4km/h5.0km/h
10:20-1.0°C-1.0°C-1.1°C80%1019.5hPa0.0mm2.1km/h5.0km/h
10:25-1.0°C-0.9°C-1.0°C80%1019.4hPa0.0mm3.3km/h8.6km/h
10:30-0.9°C-0.9°C-1.0°C80%1019.5hPa0.0mm4.1km/h8.6km/h
10:35-0.9°C-0.9°C-1.0°C79%1019.4hPa0.0mm4.0km/h6.8km/h
10:40-0.9°C-0.9°C-0.9°C79%1019.3hPa0.0mm4.3km/h6.8km/h
10:45-0.9°C-0.9°C-0.9°C79%1019.2hPa0.0mm3.8km/h8.6km/h
10:50-0.9°C-0.8°C-0.9°C79%1019.1hPa0.0mm3.3km/h8.6km/h
10:55-0.8°C-0.8°C-0.9°C79%1018.9hPa0.0mm4.8km/h8.6km/h
11:00-0.8°C-0.8°C-0.8°C79%1018.6hPa0.0mm4.5km/h10.1km/h
11:05-0.7°C-0.7°C-0.8°C79%1018.5hPa0.0mm2.8km/h6.8km/h
11:10-0.7°C-0.6°C-0.7°C78%1018.4hPa0.0mm2.0km/h5.0km/h
11:15-0.6°C-0.6°C-0.6°C78%1018.4hPa0.0mm1.6km/h6.8km/h
11:20-0.5°C-0.4°C-0.6°C78%1018.5hPa0.0mm4.2km/h8.6km/h
11:25-0.4°C-0.4°C-0.4°C78%1018.4hPa0.0mm3.7km/h8.6km/h
11:30-0.4°C-0.3°C-0.4°C77%1018.2hPa0.0mm5.0km/h6.8km/h
11:35-0.3°C-0.3°C-0.4°C77%1018.2hPa0.0mm4.1km/h8.6km/h
11:40-0.3°C-0.3°C-0.3°C76%1018.2hPa0.0mm5.0km/h11.9km/h
11:45-0.3°C-0.2°C-0.3°C76%1018.1hPa0.0mm5.1km/h8.6km/h
11:50-0.2°C-0.2°C-0.2°C76%1018.2hPa0.0mm6.5km/h11.9km/h
11:55-0.2°C-0.2°C-0.2°C75%1018.2hPa0.0mm5.1km/h8.6km/h
12:00-0.2°C-0.2°C-0.3°C75%1018.2hPa0.0mm3.1km/h6.8km/h
12:05-0.3°C-0.2°C-0.3°C75%1018.2hPa0.0mm4.6km/h10.1km/h
12:10-0.3°C-0.2°C-0.3°C75%1018.1hPa0.0mm5.1km/h10.1km/h
12:15-0.3°C-0.3°C-0.3°C74%1018.1hPa0.0mm4.2km/h10.1km/h
12:20-0.3°C-0.3°C-0.3°C74%1018.3hPa0.0mm6.5km/h11.9km/h
12:25-0.4°C-0.3°C-0.4°C74%1018.3hPa0.0mm4.6km/h11.9km/h
12:30-0.4°C-0.4°C-0.4°C73%1018.5hPa0.0mm4.7km/h8.6km/h
12:35-0.4°C-0.4°C-0.4°C73%1018.5hPa0.0mm3.7km/h10.1km/h
12:40-0.4°C-0.4°C-0.4°C74%1018.5hPa0.0mm4.3km/h13.7km/h
12:45-0.4°C-0.4°C-0.5°C74%1018.4hPa0.0mm6.4km/h13.7km/h
12:50-0.5°C-0.5°C-0.6°C73%1018.3hPa0.0mm4.8km/h11.9km/h
12:55-0.6°C-0.6°C-0.6°C72%1018.3hPa0.0mm4.4km/h10.1km/h
13:00-0.6°C-0.5°C-0.6°C73%1018.2hPa0.2mm5.5km/h11.9km/h
13:05-0.5°C-0.5°C-0.6°C73%1018.1hPa0.0mm5.9km/h11.9km/h
13:10-0.6°C-0.5°C-0.6°C73%1018.1hPa0.0mm7.4km/h16.9km/h
13:15-0.6°C-0.6°C-0.7°C73%1018.1hPa0.0mm9.4km/h15.5km/h
13:20-0.7°C-0.6°C-0.7°C73%1018.2hPa0.0mm8.0km/h15.5km/h
13:25-0.7°C-0.7°C-0.7°C73%1018.2hPa0.0mm5.3km/h11.9km/h
13:30-0.7°C-0.7°C-0.7°C73%1018.2hPa0.0mm7.2km/h15.5km/h
13:35-0.7°C-0.7°C-0.7°C73%1018.2hPa0.0mm6.6km/h11.9km/h
13:40-0.7°C-0.7°C-0.7°C74%1018.1hPa0.0mm3.6km/h5.0km/h
13:45-0.7°C-0.7°C-0.7°C74%1018.0hPa0.0mm5.1km/h13.7km/h
13:50-0.7°C-0.7°C-0.7°C73%1017.9hPa0.0mm5.9km/h11.9km/h
13:55-0.6°C-0.6°C-0.7°C72%1017.8hPa0.0mm5.4km/h11.9km/h
14:00-0.7°C-0.6°C-0.7°C71%1017.9hPa0.0mm4.3km/h11.9km/h
14:05-0.7°C-0.7°C-0.8°C71%1017.9hPa0.0mm6.5km/h11.9km/h
14:10-0.7°C-0.7°C-0.7°C71%1017.9hPa0.0mm5.8km/h11.9km/h
14:15-0.6°C-0.6°C-0.7°C71%1017.9hPa0.0mm8.1km/h13.7km/h
14:20-0.7°C-0.6°C-0.7°C70%1017.9hPa0.0mm5.6km/h13.7km/h
14:25-0.7°C-0.7°C-0.8°C71%1018.0hPa0.0mm4.5km/h10.1km/h
14:30-0.8°C-0.7°C-0.8°C71%1017.9hPa0.0mm6.6km/h11.9km/h
14:35-0.9°C-0.8°C-1.0°C71%1017.8hPa0.0mm5.7km/h6.8km/h
14:40-1.0°C-1.0°C-1.0°C71%1017.9hPa0.0mm5.1km/h8.6km/h
14:45-1.1°C-1.0°C-1.1°C72%1017.9hPa0.0mm3.9km/h8.6km/h
14:50-1.1°C-1.1°C-1.2°C73%1018.0hPa0.0mm4.6km/h10.1km/h
14:55-1.2°C-1.1°C-1.2°C73%1018.0hPa0.0mm5.2km/h10.1km/h
15:00-1.2°C-1.2°C-1.2°C73%1018.0hPa0.0mm7.2km/h10.1km/h
15:05-1.2°C-1.2°C-1.2°C73%1018.1hPa0.0mm4.8km/h8.6km/h
15:10-1.2°C-1.2°C-1.2°C74%1018.1hPa0.0mm5.5km/h10.1km/h
15:15-1.2°C-1.2°C-1.2°C74%1018.2hPa0.0mm5.2km/h8.6km/h
15:20-1.2°C-1.2°C-1.2°C74%1018.1hPa0.0mm4.6km/h8.6km/h
15:25-1.2°C-1.2°C-1.2°C74%1018.2hPa0.0mm4.0km/h10.1km/h
15:30-1.2°C-1.2°C-1.2°C75%1018.2hPa0.0mm5.4km/h8.6km/h
15:35-1.2°C-1.2°C-1.3°C75%1018.3hPa0.0mm4.5km/h8.6km/h
15:40-1.3°C-1.3°C-1.3°C75%1018.3hPa0.0mm5.7km/h10.1km/h
15:45-1.3°C-1.3°C-1.4°C75%1018.2hPa0.0mm7.1km/h11.9km/h
15:50-1.4°C-1.3°C-1.4°C75%1018.1hPa0.0mm7.1km/h15.5km/h
15:55-1.4°C-1.4°C-1.4°C76%1018.3hPa0.0mm6.0km/h8.6km/h
16:00-1.5°C-1.4°C-1.5°C76%1018.4hPa0.0mm4.3km/h8.6km/h
16:05-1.6°C-1.5°C-1.6°C76%1018.4hPa0.0mm5.6km/h8.6km/h
16:10-1.6°C-1.6°C-1.7°C76%1018.4hPa0.0mm6.6km/h10.1km/h
16:15-1.7°C-1.6°C-1.7°C76%1018.4hPa0.0mm5.9km/h10.1km/h
16:20-1.7°C-1.7°C-1.7°C76%1018.4hPa0.0mm6.0km/h10.1km/h
16:25-1.7°C-1.7°C-1.8°C77%1018.3hPa0.0mm6.8km/h8.6km/h
16:30-1.8°C-1.8°C-1.8°C77%1018.3hPa0.0mm5.7km/h8.6km/h